Accueil
METAR-TAF:

METAR-TAF

Aéroports :

Aéroport international Martinique Aimé Césaire

Fort-de-France, Martinique

latitude: 14-36N, longitude: 061-00W, altitude: 5 m

Observation

Le bulletin a été fait il y a 13 minutes, à 13:30 UTC
Vent 12 kt de sud-est
Température 28°C
Humidité 74%
Pression 1018 hPa
Visibilité 10 km ou plus
pas de nuages en-dessous de 1500 mètres et pas de cumulonimbus.

METAR: TFFF 161330Z AUTO 13012KT CAVOK 28/23 Q1018

Heure: 09:43 (13:43 UTC)

Prévision

Le bulletin a été fait il y a 9 heures et 43 minutes, à 04:00 UTC
Prévision valable du 16 à 06 UTC au 17 à 06 UTC
Vent 10 kt de est/sud-est
Visibilité 10 km ou plus
Nuages épars à une hauteur de 3000 ft
Probabilité 30% :
Temporairement
du 16 à 12 UTC au 16 à 18 UTC
Visibilité: 4000 m
Nuages épars à une hauteur de 1800 ft, Cumulus congestus.
averses de pluie

TAF: TFFF 160400Z 1606/1706 12010KT 9999 SCT030 PROB30 TEMPO 1612/1618 4000 SHRA SCT018TCU

Observations et prévisions météorologiques de plus de 4000 aéroports (messages METAR et TAF).

Les stations disponibles sont représentées par des disques jaunes et rouges sur la carte.

Passer la souris dessus pour voir le nom de la station.

Cliquer dessus pour voir les observations et prévisions météorologiques.

Pour changer de carte: cliquez sur les boutons verts avec une croix noire pour zoomer, sur le bouton vert avec un tiret pour effectuer un zoom arrière, ou sur les flèches vertes pour les cartes adjacentes.


METAR-TAF: